Time;durP1;ratioP1;P1;durP2;ratioP2;P2;SDS_P1;SDS_P2;PMS_P1;PMS_P2;Temp;Humidity;BMP_temperature;BMP_pressure;BME280_temperature;BME280_humidity;BME280_pressure;Samples;Min_cycle;Max_cycle;Signal;HPM_P1;HPM_P2
2023/10/18 00:01:21;;;;;;;5.93;4.07;;;11.40;76.90;;;;;;5052838;28;20074;-69
2023/10/18 00:03:47;;;;;;;6.53;4.80;;;11.40;77.00;;;;;;5052777;28;20029;-69
2023/10/18 00:06:16;;;;;;;5.88;4.55;;;11.30;77.00;;;;;;5052544;28;20057;-69
2023/10/18 00:08:42;;;;;;;4.72;4.18;;;11.30;76.80;;;;;;5052769;28;20029;-69
2023/10/18 00:11:08;;;;;;;5.95;4.30;;;11.40;76.90;;;;;;5052622;28;20056;-69
2023/10/18 00:13:34;;;;;;;5.03;4.38;;;11.30;76.90;;;;;;5052440;28;20480;-68
2023/10/18 00:16:05;;;;;;;6.93;4.28;;;11.30;76.80;;;;;;5052617;28;20028;-68
2023/10/18 00:18:37;;;;;;;5.50;4.28;;;11.30;76.70;;;;;;5052757;28;20055;-69
2023/10/18 00:21:06;;;;;;;5.30;4.13;;;11.40;76.60;;;;;;5052782;28;20028;-67
2023/10/18 00:23:33;;;;;;;4.60;3.85;;;11.30;76.80;;;;;;5052626;28;20259;-69
2023/10/18 00:26:06;;;;;;;5.68;4.15;;;11.30;76.70;;;;;;5052523;28;20053;-69
2023/10/18 00:28:34;;;;;;;6.07;4.60;;;11.30;76.50;;;;;;5052539;28;20432;-69
2023/10/18 00:31:20;;;;;;;4.70;4.20;;;11.40;76.70;;;;;;5052553;28;20393;-69
2023/10/18 00:33:49;;;;;;;6.45;4.18;;;11.30;76.50;;;;;;5052393;28;20075;-69
2023/10/18 00:36:16;;;;;;;7.25;4.60;;;11.30;76.40;;;;;;5052512;28;20147;-69
2023/10/18 00:38:46;;;;;;;5.05;4.10;;;11.30;76.40;;;;;;5052493;28;20075;-69
2023/10/18 00:41:18;;;;;;;5.30;4.32;;;11.30;76.30;;;;;;5052587;28;20017;-68
2023/10/18 00:43:50;;;;;;;4.82;4.30;;;11.30;76.40;;;;;;5052369;28;20036;-69
2023/10/18 00:46:16;;;;;;;6.15;4.10;;;11.30;76.40;;;;;;5052373;28;20044;-69
2023/10/18 00:48:45;;;;;;;6.72;4.47;;;11.30;76.50;;;;;;5052327;28;20021;-69
2023/10/18 00:51:16;;;;;;;6.55;4.50;;;11.40;76.70;;;;;;5052274;28;20421;-69
2023/10/18 00:53:42;;;;;;;5.28;4.35;;;11.40;76.70;;;;;;5034714;28;20083;-68
2023/10/18 00:56:13;;;;;;;5.03;4.00;;;11.40;76.70;;;;;;5032183;28;20045;-68
2023/10/18 00:58:42;;;;;;;6.53;4.38;;;11.30;76.70;;;;;;5030385;28;20578;-68
2023/10/18 01:01:11;;;;;;;5.45;4.07;;;11.30;76.80;;;;;;5030001;28;20447;-69
2023/10/18 01:03:42;;;;;;;5.75;4.22;;;11.30;76.90;;;;;;5029702;28;20116;-69
2023/10/18 01:06:24;;;;;;;5.85;4.43;;;11.30;76.80;;;;;;5032127;28;20024;-69
2023/10/18 01:08:50;;;;;;;6.27;4.60;;;11.30;77.00;;;;;;5032430;28;20424;-69
2023/10/18 01:11:30;;;;;;;4.88;4.22;;;11.30;76.90;;;;;;5031926;28;20612;-68
2023/10/18 01:13:59;;;;;;;4.65;4.00;;;11.30;77.00;;;;;;5032259;28;20109;-69
2023/10/18 01:16:35;;;;;;;6.22;4.43;;;11.30;76.80;;;;;;5035729;28;20040;-69
2023/10/18 01:19:01;;;;;;;6.43;4.70;;;11.30;76.80;;;;;;5035825;28;20025;-69
2023/10/18 01:21:27;;;;;;;5.95;4.35;;;11.30;76.90;;;;;;5035437;28;20079;-69
2023/10/18 01:23:56;;;;;;;8.25;4.43;;;11.30;76.90;;;;;;5035722;28;20017;-68
2023/10/18 01:26:30;;;;;;;6.63;4.65;;;11.30;76.80;;;;;;5035617;28;20420;-68
2023/10/18 01:28:57;;;;;;;6.45;4.32;;;11.20;77.00;;;;;;5035464;28;20117;-69
2023/10/18 01:31:24;;;;;;;7.20;4.38;;;11.30;76.80;;;;;;5035427;28;20048;-68
2023/10/18 01:33:51;;;;;;;7.25;4.25;;;11.30;76.70;;;;;;5035311;28;20198;-69
2023/10/18 01:36:18;;;;;;;4.82;4.15;;;11.20;76.70;;;;;;5035320;28;20033;-69
2023/10/18 01:38:52;;;;;;;5.15;4.00;;;11.30;76.60;;;;;;5035248;28;20420;-69
2023/10/18 01:41:37;;;;;;;6.25;3.83;;;11.30;76.40;;;;;;5034244;28;20374;-68
2023/10/18 01:44:07;;;;;;;5.00;4.40;;;11.30;76.40;;;;;;5035389;28;20109;-68
2023/10/18 01:46:43;;;;;;;7.32;4.55;;;11.30;76.50;;;;;;5035223;28;20022;-69
2023/10/18 01:49:13;;;;;;;5.35;4.50;;;11.30;76.40;;;;;;5035126;28;20393;-69
2023/10/18 01:51:43;;;;;;;6.95;4.45;;;11.30;76.20;;;;;;5035255;28;20021;-68
2023/10/18 01:54:15;;;;;;;6.28;4.80;;;11.30;76.10;;;;;;5035412;28;20362;-69
2023/10/18 01:56:42;;;;;;;;;;;11.30;76.00;;;;;;5035306;28;20116;-69
2023/10/18 01:59:14;;;;;;;5.40;4.60;;;11.30;76.10;;;;;;5035157;28;20403;-69
2023/10/18 02:01:40;;;;;;;6.60;4.40;;;11.30;76.20;;;;;;5035195;28;20022;-69
2023/10/18 02:04:11;;;;;;;5.22;4.50;;;11.30;76.10;;;;;;5035094;28;20022;-69
2023/10/18 02:06:37;;;;;;;5.40;4.50;;;11.30;76.30;;;;;;5033540;28;20477;-68
2023/10/18 02:09:10;;;;;;;4.93;4.20;;;11.30;76.60;;;;;;5034843;28;20021;-69
2023/10/18 02:11:36;;;;;;;5.30;4.75;;;11.30;76.70;;;;;;5034859;28;20021;-69
2023/10/18 02:14:02;;;;;;;7.15;4.20;;;11.30;76.90;;;;;;5034911;28;20022;-69
2023/10/18 02:16:31;;;;;;;6.13;4.10;;;11.20;76.70;;;;;;5034520;28;20037;-69
2023/10/18 02:18:57;;;;;;;5.70;4.35;;;11.30;76.80;;;;;;5034913;28;20029;-69
2023/10/18 02:21:28;;;;;;;5.22;4.47;;;11.20;76.90;;;;;;5034741;28;20386;-69
2023/10/18 02:23:55;;;;;;;6.47;4.55;;;11.20;77.00;;;;;;5034777;28;20037;-68
2023/10/18 02:26:30;;;;;;;6.00;4.93;;;11.20;77.60;;;;;;5033578;28;20044;-68
2023/10/18 02:28:59;;;;;;;6.32;4.00;;;11.20;77.60;;;;;;5034721;28;20029;-68
2023/10/18 02:31:25;;;;;;;4.72;4.25;;;11.10;77.60;;;;;;5034646;28;20021;-68
2023/10/18 02:33:53;;;;;;;5.15;4.40;;;11.10;77.70;;;;;;5033982;28;20156;-69
2023/10/18 02:39:07;;;;;;;6.43;4.60;;;11.10;77.90;;;;;;5034578;28;20027;-68
2023/10/18 02:41:37;;;;;;;5.93;4.05;;;11.10;77.80;;;;;;5034270;28;20030;-68
2023/10/18 02:44:10;;;;;;;5.47;4.50;;;11.10;77.70;;;;;;5034396;28;20048;-69
2023/10/18 02:46:36;;;;;;;7.93;4.57;;;11.10;77.60;;;;;;5033996;28;20021;-69
2023/10/18 02:49:07;;;;;;;5.93;4.38;;;11.10;77.40;;;;;;5032881;28;20052;-68
2023/10/18 02:51:35;;;;;;;5.37;4.70;;;11.10;77.10;;;;;;5034136;28;20427;-69
2023/10/18 02:54:10;;;;;;;6.60;4.28;;;11.10;77.10;;;;;;5033697;28;20393;-68
2023/10/18 02:56:37;;;;;;;6.93;4.40;;;11.10;77.20;;;;;;5034126;28;20040;-69
2023/10/18 02:59:09;;;;;;;4.90;4.35;;;11.10;77.20;;;;;;5033917;28;20044;-68
2023/10/18 03:01:43;;;;;;;8.15;5.13;;;11.00;77.30;;;;;;5032797;28;20021;-68
2023/10/18 03:04:14;;;;;;;6.15;4.43;;;11.00;77.50;;;;;;5033656;28;20022;-68
2023/10/18 03:06:42;;;;;;;6.20;4.80;;;11.10;77.70;;;;;;5032206;28;20026;-69
2023/10/18 03:09:27;;;;;;;7.93;4.80;;;11.00;77.70;;;;;;5033648;28;20041;-68
2023/10/18 03:11:54;;;;;;;4.93;4.43;;;11.00;78.00;;;;;;5033812;28;20021;-69
2023/10/18 03:14:39;;;;;;;4.78;4.18;;;11.00;78.10;;;;;;5033577;28;20022;-69
2023/10/18 03:17:15;;;;;;;5.53;4.88;;;11.00;78.10;;;;;;5033314;28;20068;-69
2023/10/18 03:19:55;;;;;;;6.07;5.30;;;10.90;78.10;;;;;;5033471;28;20018;-69
2023/10/18 03:22:22;;;;;;;4.88;4.20;;;10.90;78.20;;;;;;5033298;28;20381;-69
2023/10/18 03:24:53;;;;;;;5.32;4.30;;;10.90;78.20;;;;;;5033171;28;20041;-69
2023/10/18 03:27:20;;;;;;;6.80;4.60;;;10.90;78.20;;;;;;5033185;28;20029;-68
2023/10/18 03:29:46;;;;;;;5.00;4.45;;;10.90;78.20;;;;;;5033333;28;20432;-69
2023/10/18 03:32:15;;;;;;;6.85;4.22;;;10.90;78.20;;;;;;5032702;28;20029;-69
2023/10/18 03:34:44;;;;;;;6.13;4.68;;;10.90;78.50;;;;;;5033141;28;20022;-69
2023/10/18 03:37:24;;;;;;;7.28;4.85;;;10.90;78.40;;;;;;5032900;28;20044;-69
2023/10/18 03:39:53;;;;;;;6.13;4.40;;;10.90;78.60;;;;;;5033139;28;20377;-68
2023/10/18 03:42:35;;;;;;;6.03;4.88;;;10.90;78.90;;;;;;5033215;28;20044;-69
2023/10/18 03:45:20;;;;;;;4.88;4.38;;;10.90;79.00;;;;;;5033175;28;20025;-68
2023/10/18 03:47:57;;;;;;;5.47;4.60;;;10.80;79.00;;;;;;5033128;28;20048;-68
2023/10/18 03:50:37;;;;;;;5.78;5.05;;;10.80;79.00;;;;;;5033066;28;20022;-68
2023/10/18 03:53:06;;;;;;;7.15;5.32;;;10.80;79.00;;;;;;5033026;28;20119;-69
2023/10/18 03:55:38;;;;;;;5.78;4.80;;;10.80;79.20;;;;;;5033120;28;20437;-69
2023/10/18 03:58:22;;;;;;;6.95;4.90;;;10.80;78.90;;;;;;5032968;28;20061;-69
2023/10/18 04:00:54;;;;;;;5.75;4.93;;;10.80;78.80;;;;;;5032881;28;20033;-69
2023/10/18 04:03:21;;;;;;;6.03;4.80;;;10.80;78.80;;;;;;5032744;28;20117;-69
2023/10/18 04:05:50;;;;;;;6.53;5.05;;;10.90;78.80;;;;;;5032578;28;20025;-69
2023/10/18 04:08:18;;;;;;;7.60;4.80;;;10.90;78.70;;;;;;5033290;28;20191;-69
2023/10/18 04:10:54;;;;;;;5.45;4.55;;;10.90;78.50;;;;;;5032946;28;20087;-69
2023/10/18 04:13:24;;;;;;;9.10;6.65;;;10.80;78.60;;;;;;5032766;28;20355;-69
2023/10/18 04:15:59;;;;;;;6.78;5.35;;;10.90;79.10;;;;;;5032609;28;20026;-68
2023/10/18 04:18:26;;;;;;;5.90;5.15;;;10.80;79.10;;;;;;5032587;28;20037;-69
2023/10/18 04:20:52;;;;;;;5.97;4.90;;;10.80;79.10;;;;;;5033040;28;20425;-69
2023/10/18 04:23:19;;;;;;;6.88;4.95;;;10.80;79.10;;;;;;5032623;28;20505;-69
2023/10/18 04:25:57;;;;;;;6.40;5.20;;;10.80;79.00;;;;;;5032466;28;20025;-68
2023/10/18 04:28:24;;;;;;;5.63;4.90;;;10.80;79.30;;;;;;5032466;28;20022;-69
2023/10/18 04:30:59;;;;;;;5.90;4.55;;;10.80;79.20;;;;;;5032699;28;20029;-69
2023/10/18 04:33:28;;;;;;;8.20;4.78;;;10.80;79.20;;;;;;5032489;28;20435;-69
2023/10/18 04:35:56;;;;;;;7.18;5.55;;;10.90;79.30;;;;;;5032604;28;20026;-69
2023/10/18 04:38:24;;;;;;;6.00;4.90;;;10.80;79.40;;;;;;5032388;28;20091;-69
2023/10/18 04:40:56;;;;;;;6.55;5.00;;;10.80;79.50;;;;;;5032643;28;20018;-68
2023/10/18 04:43:27;;;;;;;5.40;4.87;;;10.80;79.50;;;;;;5032631;28;20021;-69
2023/10/18 04:45:57;;;;;;;7.32;5.25;;;10.80;79.70;;;;;;5032554;28;20108;-68
2023/10/18 04:51:08;;;;;;;5.53;4.60;;;10.70;79.70;;;;;;5036204;28;20036;-68
2023/10/18 04:53:34;;;;;;;8.55;5.03;;;10.80;79.80;;;;;;5036327;28;20454;-69
2023/10/18 04:56:02;;;;;;;5.88;4.57;;;10.70;79.90;;;;;;5036343;28;20053;-68
2023/10/18 04:58:29;;;;;;;7.18;5.07;;;;;;;;;;5036037;28;20029;-69
2023/10/18 05:01:01;;;;;;;6.63;4.90;;;10.70;79.50;;;;;;5036095;28;20018;-68
2023/10/18 05:03:30;;;;;;;6.77;4.50;;;10.70;80.30;;;;;;5035827;28;20026;-69
2023/10/18 05:05:59;;;;;;;6.55;5.03;;;10.60;80.40;;;;;;5035686;28;20075;-68
2023/10/18 05:08:30;;;;;;;7.40;5.15;;;10.60;80.50;;;;;;5035899;28;20036;-68
2023/10/18 05:11:22;;;;;;;6.85;4.82;;;10.60;80.40;;;;;;5035869;28;20033;-69
2023/10/18 05:13:42;;;;;;;7.95;5.30;;;10.60;80.50;;;;;;5035645;28;20033;-69
2023/10/18 05:16:11;;;;;;;6.13;5.10;;;10.60;80.70;;;;;;5034663;28;20028;-68
2023/10/18 05:18:37;;;;;;;7.47;5.63;;;10.50;81.00;;;;;;5035625;28;20034;-67
2023/10/18 05:21:10;;;;;;;7.65;6.20;;;10.60;81.10;;;;;;5035738;28;20131;-67
2023/10/18 05:23:46;;;;;;;7.45;5.85;;;10.60;81.00;;;;;;5035409;28;20030;-68
2023/10/18 05:26:18;;;;;;;9.43;6.22;;;10.60;80.90;;;;;;5034435;28;20175;-68
2023/10/18 05:28:52;;;;;;;8.57;5.63;;;10.50;80.90;;;;;;5035735;28;20382;-68
2023/10/18 05:34:18;;;;;;;7.63;5.82;;;10.50;80.90;;;;;;5035511;28;20135;-68
2023/10/18 05:39:28;;;;;;;6.82;5.28;;;10.50;81.40;;;;;;5035257;28;20037;-69
2023/10/18 05:42:03;;;;;;;8.05;5.70;;;;;;;;;;5035310;28;20022;-69
2023/10/18 05:44:34;;;;;;;7.32;5.43;;;10.50;81.30;;;;;;5035675;28;20026;-68
2023/10/18 05:46:59;;;;;;;6.60;5.13;;;10.50;81.80;;;;;;5035547;28;20055;-68
2023/10/18 05:49:27;;;;;;;7.93;5.50;;;10.50;81.80;;;;;;5035272;28;20100;-70
2023/10/18 05:54:43;;;;;;;8.75;5.53;;;10.50;81.60;;;;;;5035123;28;20385;-71
2023/10/18 05:57:15;;;;;;;9.98;5.72;;;10.50;81.50;;;;;;5035020;28;20033;-70
2023/10/18 05:59:46;;;;;;;8.82;5.85;;;10.50;81.40;;;;;;5035182;28;20123;-71
2023/10/18 06:02:22;;;;;;;7.57;6.18;;;10.50;81.50;;;;;;5034510;28;20172;-71
2023/10/18 06:04:49;;;;;;;8.15;5.55;;;10.60;81.20;;;;;;5034491;28;20481;-71
2023/10/18 06:07:17;;;;;;;7.40;5.73;;;10.60;81.20;;;;;;5035044;28;20028;-68
2023/10/18 06:09:55;;;;;;;7.38;5.93;;;10.60;81.20;;;;;;5033806;28;20040;-70
2023/10/18 06:12:27;;;;;;;12.70;5.32;;;10.60;81.30;;;;;;5034815;28;20108;-71
2023/10/18 06:14:53;;;;;;;7.75;6.28;;;10.70;81.20;;;;;;5034443;28;20083;-69
2023/10/18 06:17:26;;;;;;;6.82;5.57;;;10.70;80.80;;;;;;5034569;28;20091;-69
2023/10/18 06:19:52;;;;;;;8.07;6.30;;;10.70;80.60;;;;;;5034675;28;20028;-71
2023/10/18 06:22:28;;;;;;;8.10;5.85;;;10.70;80.60;;;;;;5035034;28;20052;-71
2023/10/18 06:24:57;;;;;;;13.07;6.00;;;10.70;80.60;;;;;;5033169;28;20025;-70
2023/10/18 06:27:23;;;;;;;14.85;6.50;;;10.70;80.60;;;;;;5033725;28;20037;-71
2023/10/18 06:29:54;;;;;;;14.80;6.60;;;10.80;80.70;;;;;;5034212;28;20040;-72
2023/10/18 06:32:25;;;;;;;7.43;6.35;;;10.80;80.80;;;;;;5034044;28;20099;-72
2023/10/18 06:34:58;;;;;;;10.13;6.20;;;10.80;81.10;;;;;;5033988;28;20100;-70
2023/10/18 06:37:24;;;;;;;10.38;6.40;;;10.80;81.20;;;;;;5033787;28;20044;-71
2023/10/18 06:39:51;;;;;;;8.63;6.28;;;10.80;81.30;;;;;;5033789;28;20454;-71
2023/10/18 06:42:18;;;;;;;10.70;6.38;;;10.80;81.60;;;;;;5033720;28;20073;-71
2023/10/18 06:44:47;;;;;;;7.63;6.35;;;10.90;81.90;;;;;;5033542;28;20481;-72
2023/10/18 06:47:15;;;;;;;6.65;5.82;;;10.90;82.10;;;;;;5033577;28;21047;-72
2023/10/18 06:49:47;;;;;;;7.32;6.07;;;10.90;82.10;;;;;;5033995;28;20057;-72
2023/10/18 06:52:14;;;;;;;7.03;5.68;;;10.90;82.00;;;;;;5033629;28;20025;-71
2023/10/18 06:54:40;;;;;;;8.88;5.13;;;11.00;82.00;;;;;;5033226;28;20024;-71
2023/10/18 06:57:15;;;;;;;27.45;6.22;;;11.00;81.90;;;;;;5033547;28;20045;-69
2023/10/18 06:59:44;;;;;;;13.30;5.53;;;11.00;81.80;;;;;;5033764;28;20022;-68
2023/10/18 07:02:12;;;;;;;8.32;5.38;;;11.00;81.80;;;;;;5033732;28;20409;-69
2023/10/18 07:04:38;;;;;;;7.97;5.70;;;11.10;81.60;;;;;;5033558;28;20408;-69
2023/10/18 07:07:19;;;;;;;26.00;6.07;;;11.10;81.30;;;;;;5032499;28;20375;-68
2023/10/18 07:09:49;;;;;;;11.05;5.10;;;11.20;81.30;;;;;;5033406;28;20048;-70
2023/10/18 07:12:17;;;;;;;9.63;5.13;;;11.30;81.80;;;;;;5047694;28;20025;-68
2023/10/18 07:14:43;;;;;;;9.23;6.05;;;11.40;81.00;;;;;;5052809;28;20025;-69
2023/10/18 07:17:13;;;;;;;20.95;5.53;;;11.40;80.70;;;;;;5052940;28;20037;-68
2023/10/18 07:19:48;;;;;;;8.82;4.82;;;11.50;80.70;;;;;;5053263;28;20047;-69
2023/10/18 07:22:18;;;;;;;6.88;4.85;;;11.50;80.70;;;;;;5051747;28;20029;-69
2023/10/18 07:24:47;;;;;;;5.90;4.82;;;11.60;80.30;;;;;;5053134;28;20075;-70
2023/10/18 07:27:15;;;;;;;6.32;4.90;;;11.70;80.20;;;;;;5052395;28;20442;-70
2023/10/18 07:29:46;;;;;;;11.77;5.55;;;11.70;79.90;;;;;;5052147;28;20031;-69
2023/10/18 07:32:12;;;;;;;8.27;4.95;;;11.80;80.00;;;;;;5052480;28;20153;-70
2023/10/18 07:34:38;;;;;;;10.48;4.47;;;11.80;79.90;;;;;;5052515;28;20416;-70
2023/10/18 07:37:17;;;;;;;6.15;4.40;;;11.80;79.50;;;;;;5012078;28;20397;-70
2023/10/18 07:39:49;;;;;;;7.50;4.88;;;11.90;79.60;;;;;;5032723;28;20021;-70
2023/10/18 07:42:26;;;;;;;8.68;5.15;;;12.00;79.60;;;;;;5032824;28;20026;-71
2023/10/18 07:44:54;;;;;;;11.07;5.70;;;12.00;79.20;;;;;;5032621;28;20064;-71
2023/10/18 07:47:24;;;;;;;8.10;5.32;;;12.00;79.10;;;;;;5032830;28;20104;-70
2023/10/18 07:49:55;;;;;;;11.25;5.40;;;12.10;79.10;;;;;;5032775;28;20017;-73
2023/10/18 07:52:21;;;;;;;7.57;5.53;;;12.10;78.70;;;;;;5032739;28;20030;-71
2023/10/18 07:54:48;;;;;;;7.72;5.90;;;12.10;78.80;;;;;;5032438;28;20025;-70
2023/10/18 07:57:18;;;;;;;7.80;5.25;;;12.20;78.80;;;;;;5032454;28;20040;-72
2023/10/18 07:59:46;;;;;;;9.45;6.10;;;12.20;78.90;;;;;;5032414;28;20128;-70
2023/10/18 08:02:19;;;;;;;9.70;6.72;;;12.20;78.90;;;;;;5032919;28;20025;-70
2023/10/18 08:04:48;;;;;;;;;;;12.30;79.10;;;;;;5033064;28;20022;-70
2023/10/18 08:07:15;;;;;;;7.63;6.50;;;12.30;79.10;;;;;;5031609;28;19905;-70
2023/10/18 08:09:42;;;;;;;7.80;6.45;;;12.40;78.70;;;;;;5033085;28;20029;-70
2023/10/18 08:12:29;;;;;;;9.70;7.05;;;12.30;78.60;;;;;;5032741;28;20450;-70
2023/10/18 08:14:55;;;;;;;7.75;6.75;;;12.40;78.90;;;;;;5032833;28;20022;-71
2023/10/18 08:17:30;;;;;;;11.07;6.78;;;12.50;79.00;;;;;;5032886;28;20038;-68
2023/10/18 08:20:17;;;;;;;14.80;7.68;;;12.50;78.80;;;;;;5033004;28;20073;-68
2023/10/18 08:22:43;;;;;;;12.70;7.93;;;;;;;;;;5032707;28;20042;-70
2023/10/18 08:25:21;;;;;;;8.20;5.75;;;12.70;78.30;;;;;;5035545;28;20118;-70
2023/10/18 08:27:48;;;;;;;9.00;6.40;;;12.70;78.50;;;;;;5036917;28;20474;-70
2023/10/18 08:30:23;;;;;;;6.85;5.82;;;12.80;78.10;;;;;;5035964;28;20025;-70
2023/10/18 08:32:51;;;;;;;10.02;5.53;;;12.80;77.80;;;;;;5036194;28;20081;-70
2023/10/18 08:35:19;;;;;;;8.65;6.00;;;12.80;77.50;;;;;;5036282;28;20087;-70
2023/10/18 08:37:46;;;;;;;7.03;5.85;;;12.90;77.60;;;;;;5036528;28;20438;-70
2023/10/18 08:40:28;;;;;;;7.88;4.93;;;12.90;77.60;;;;;;5036672;28;20028;-70
2023/10/18 08:43:18;;;;;;;6.47;4.68;;;13.00;77.60;;;;;;5036254;28;20033;-70
2023/10/18 08:45:47;;;;;;;7.97;4.93;;;13.00;77.30;;;;;;5036325;28;20036;-70
2023/10/18 08:48:27;;;;;;;8.60;5.35;;;13.00;77.40;;;;;;5036486;28;20018;-70
2023/10/18 08:50:55;;;;;;;8.57;5.80;;;;;;;;;;5036505;28;20026;-70
2023/10/18 08:53:22;;;;;;;10.55;5.20;;;13.10;76.90;;;;;;5036573;28;20031;-70
2023/10/18 08:55:53;;;;;;;9.00;5.30;;;13.10;77.60;;;;;;5036802;28;20026;-70
2023/10/18 08:58:20;;;;;;;9.25;5.10;;;13.20;77.60;;;;;;5036127;28;20037;-70
2023/10/18 09:03:23;;;;;;;10.88;5.63;;;13.20;78.40;;;;;;5036261;28;20405;-70
2023/10/18 09:06:05;;;;;;;6.95;5.22;;;13.20;78.40;;;;;;5036360;28;20014;-70
2023/10/18 09:09:00;;;;;;;9.50;5.38;;;13.20;78.50;;;;;;5036254;28;20034;-71
2023/10/18 09:11:31;;;;;;;6.00;5.40;;;13.20;78.60;;;;;;5036369;28;20033;-71
2023/10/18 09:14:10;;;;;;;10.20;6.35;;;13.20;79.00;;;;;;5036217;28;20028;-71
2023/10/18 09:16:41;;;;;;;12.27;5.95;;;13.20;79.10;;;;;;5036371;28;20374;-71
2023/10/18 09:19:08;;;;;;;7.50;5.50;;;13.30;79.00;;;;;;5036173;28;20035;-71
2023/10/18 09:21:51;;;;;;;7.35;5.38;;;13.40;79.20;;;;;;5036119;28;20024;-71
2023/10/18 09:24:23;;;;;;;10.93;5.30;;;13.40;79.40;;;;;;5034884;28;20029;-71
2023/10/18 09:26:50;;;;;;;10.85;5.75;;;13.40;78.80;;;;;;5036171;28;20056;-71
2023/10/18 09:29:18;;;;;;;9.13;5.78;;;13.50;78.40;;;;;;5036087;28;20021;-70
2023/10/18 09:32:02;;;;;;;7.28;5.60;;;13.50;78.70;;;;;;5035705;28;20021;-70
2023/10/18 09:34:35;;;;;;;6.25;5.55;;;13.50;78.50;;;;;;5035080;28;20429;-71
2023/10/18 09:37:04;;;;;;;7.50;5.53;;;13.60;78.70;;;;;;5035384;28;20069;-71
2023/10/18 09:39:42;;;;;;;10.43;5.63;;;13.60;78.50;;;;;;5034036;28;20068;-70
2023/10/18 09:42:20;;;;;;;7.65;5.30;;;13.70;78.10;;;;;;5035517;28;20405;-71
2023/10/18 09:44:46;;;;;;;15.10;5.40;;;13.70;77.80;;;;;;5035840;28;20115;-71
2023/10/18 09:47:12;;;;;;;8.63;5.70;;;13.70;77.60;;;;;;5035453;28;20558;-71
2023/10/18 09:49:41;;;;;;;6.50;5.57;;;13.80;77.80;;;;;;5035432;28;20042;-71
2023/10/18 09:52:11;;;;;;;7.70;5.35;;;13.80;77.70;;;;;;5035120;28;20037;-72
2023/10/18 09:54:49;;;;;;;6.85;5.25;;;13.90;77.40;;;;;;5035294;28;20025;-71
2023/10/18 09:57:33;;;;;;;6.47;5.78;;;13.90;77.20;;;;;;5035460;28;20033;-71
2023/10/18 10:00:11;;;;;;;7.40;5.57;;;13.90;77.40;;;;;;5035329;28;20030;-71
2023/10/18 10:02:40;;;;;;;7.90;5.68;;;13.90;77.30;;;;;;5034435;28;20105;-71
2023/10/18 10:05:24;;;;;;;6.65;5.07;;;14.00;77.30;;;;;;5034384;28;20541;-71
2023/10/18 10:07:55;;;;;;;10.88;7.22;;;14.00;76.90;;;;;;5034964;28;20029;-71
2023/10/18 10:10:24;;;;;;;7.68;5.18;;;14.00;77.20;;;;;;5035211;28;20029;-71
2023/10/18 10:12:57;;;;;;;6.97;5.88;;;14.00;77.10;;;;;;5035324;28;20035;-71
2023/10/18 10:15:28;;;;;;;6.03;4.80;;;14.00;77.00;;;;;;5034946;28;20025;-71
2023/10/18 10:18:00;;;;;;;10.35;5.53;;;14.00;77.00;;;;;;5033751;28;20059;-71
2023/10/18 10:20:32;;;;;;;5.78;5.18;;;14.00;77.00;;;;;;5035181;28;20014;-71
2023/10/18 10:23:02;;;;;;;;;;;14.00;77.00;;;;;;5035342;28;20048;-71
2023/10/18 10:25:38;;;;;;;7.55;5.28;;;14.00;77.00;;;;;;5034795;28;19905;-72
2023/10/18 10:28:37;;;;;;;7.13;5.80;;;14.00;77.40;;;;;;5034629;28;20029;-71
2023/10/18 10:30:51;;;;;;;6.07;5.47;;;14.00;77.60;;;;;;5034437;28;20026;-71
2023/10/18 10:33:17;;;;;;;5.72;4.70;;;14.00;77.80;;;;;;5034597;28;20096;-71
2023/10/18 10:35:45;;;;;;;6.40;5.25;;;14.00;77.50;;;;;;5034798;28;20036;-71
2023/10/18 10:38:18;;;;;;;6.32;5.00;;;14.00;77.60;;;;;;5034429;28;20046;-71
2023/10/18 10:40:48;;;;;;;7.93;5.53;;;13.90;77.90;;;;;;5034674;28;20024;-71
2023/10/18 10:43:19;;;;;;;8.45;5.30;;;13.90;78.00;;;;;;5034637;28;20386;-71
2023/10/18 10:49:47;;;;;;;7.90;5.38;;;13.90;78.40;;;;;;5026740;28;20316;-70
2023/10/18 10:52:18;;;;;;;8.00;5.88;;;13.90;78.90;;;;;;5026827;28;20038;-70
2023/10/18 10:54:51;;;;;;;6.45;5.30;;;13.90;79.00;;;;;;5027014;28;20021;-70
2023/10/18 10:57:19;;;;;;;83.53;38.92;;;13.90;79.20;;;;;;5026902;28;20030;-69
2023/10/18 10:59:56;;;;;;;10.32;8.50;;;13.90;81.00;;;;;;5026967;28;20523;-70
2023/10/18 11:02:39;;;;;;;8.23;6.88;;;14.00;81.40;;;;;;5026695;28;20033;-70
2023/10/18 11:05:15;;;;;;;13.50;8.30;;;14.00;80.60;;;;;;5027058;28;20047;-70
2023/10/18 11:07:45;;;;;;;32.88;17.23;;;14.00;79.90;;;;;;5026755;28;20034;-70
2023/10/18 11:10:17;;;;;;;9.15;5.57;;;14.00;80.00;;;;;;5026726;28;20026;-70
2023/10/18 11:12:45;;;;;;;10.88;5.80;;;14.00;80.10;;;;;;5025955;28;20010;-70
2023/10/18 11:15:17;;;;;;;6.97;5.20;;;14.00;79.20;;;;;;5026611;28;20029;-70
2023/10/18 11:17:47;;;;;;;15.82;6.25;;;14.00;79.20;;;;;;5026870;28;20416;-71
2023/10/18 11:20:19;;;;;;;9.75;5.90;;;14.00;78.90;;;;;;5026384;28;20377;-71
2023/10/18 11:22:47;;;;;;;13.38;5.90;;;14.10;78.90;;;;;;5026618;28;20041;-71
2023/10/18 11:25:20;;;;;;;9.55;5.47;;;14.10;78.70;;;;;;5026500;28;20033;-71
2023/10/18 11:27:46;;;;;;;8.52;5.97;;;14.10;78.60;;;;;;5025320;28;20033;-71
2023/10/18 11:30:25;;;;;;;9.88;5.72;;;14.10;78.60;;;;;;5026549;28;20033;-71
2023/10/18 11:32:54;;;;;;;8.82;6.07;;;14.10;78.80;;;;;;5026593;28;20358;-69
2023/10/18 11:35:48;;;;;;;8.00;5.35;;;14.20;79.00;;;;;;5026272;28;20113;-71
2023/10/18 11:38:16;;;;;;;12.70;7.88;;;14.10;79.00;;;;;;5025792;28;20030;-71
2023/10/18 11:40:50;;;;;;;8.93;5.65;;;14.20;80.20;;;;;;5026484;28;20074;-71
2023/10/18 11:43:25;;;;;;;7.45;5.75;;;14.20;80.10;;;;;;5026079;28;20392;-71
2023/10/18 11:46:13;;;;;;;11.52;7.55;;;14.10;79.50;;;;;;5026100;28;20034;-71
2023/10/18 11:48:41;;;;;;;9.88;5.95;;;14.20;79.00;;;;;;5025923;28;20050;-71
2023/10/18 11:51:08;;;;;;;8.40;6.35;;;14.20;78.90;;;;;;5026004;28;20026;-71
2023/10/18 11:53:35;;;;;;;6.72;5.80;;;14.20;78.20;;;;;;5026110;28;20026;-71
2023/10/18 11:56:05;;;;;;;33.85;25.80;;;14.20;78.00;;;;;;5026465;28;20486;-71
2023/10/18 11:58:33;;;;;;;15.70;9.63;;;14.20;79.70;;;;;;5025555;28;20083;-72
2023/10/18 12:01:06;;;;;;;349.73;48.75;;;14.20;80.10;;;;;;5013340;28;20379;-71
2023/10/18 12:03:38;;;;;;;14.68;8.98;;;14.20;80.70;;;;;;5012803;28;20105;-71
2023/10/18 12:06:04;;;;;;;10.23;6.82;;;14.20;81.70;;;;;;5013055;28;20054;-71
2023/10/18 12:08:47;;;;;;;10.25;7.13;;;14.30;82.10;;;;;;5012581;28;20038;-70
2023/10/18 12:11:14;;;;;;;118.70;25.77;;;14.30;82.30;;;;;;5012485;28;20026;-71
2023/10/18 12:13:41;;;;;;;10.27;8.73;;;14.30;83.20;;;;;;5012721;28;20026;-71
2023/10/18 12:16:08;;;;;;;7.80;5.72;;;14.30;83.80;;;;;;5012659;28;20030;-71
2023/10/18 12:18:35;;;;;;;280.52;53.25;;;14.30;83.40;;;;;;5012610;28;20037;-71
2023/10/18 12:21:05;;;;;;;13.45;9.75;;;14.30;83.60;;;;;;5012709;28;20030;-70
2023/10/18 12:23:31;;;;;;;5.95;5.18;;;14.30;84.30;;;;;;5012542;28;20058;-69
2023/10/18 12:26:05;;;;;;;7.82;5.65;;;14.20;83.50;;;;;;5012682;28;20061;-70
2023/10/18 12:28:37;;;;;;;9.82;6.13;;;14.30;82.80;;;;;;5012267;28;20042;-70
2023/10/18 12:31:12;;;;;;;7.13;5.40;;;14.30;82.50;;;;;;5012521;28;20026;-70
2023/10/18 12:33:40;;;;;;;8.35;5.65;;;14.30;82.00;;;;;;5012057;28;20033;-70
2023/10/18 12:36:09;;;;;;;13.07;5.18;;;14.20;81.10;;;;;;5011868;28;20033;-70
2023/10/18 12:38:38;;;;;;;9.50;5.70;;;14.20;80.80;;;;;;5012165;28;20064;-70
2023/10/18 12:41:18;;;;;;;6.53;5.45;;;14.20;80.70;;;;;;5011882;28;20026;-71
2023/10/18 12:43:47;;;;;;;6.80;5.40;;;14.20;80.70;;;;;;5012276;28;20029;-70
2023/10/18 12:46:17;;;;;;;7.40;5.47;;;14.30;80.90;;;;;;5012234;28;20029;-72
2023/10/18 12:48:57;;;;;;;8.60;6.05;;;14.20;81.70;;;;;;5011862;28;20464;-72
2023/10/18 12:51:34;;;;;;;8.30;5.60;;;14.20;81.10;;;;;;5012000;28;20029;-72
2023/10/18 12:54:03;;;;;;;9.40;6.10;;;14.20;80.80;;;;;;5011995;28;20105;-72
2023/10/18 12:59:11;;;;;;;8.20;6.20;;;14.20;80.30;;;;;;5012345;28;20023;-71
2023/10/18 13:04:07;;;;;;;10.13;6.30;;;14.20;80.00;;;;;;5011823;28;20068;-71
2023/10/18 13:06:51;;;;;;;8.35;5.75;;;14.20;80.10;;;;;;5011837;28;20134;-71
2023/10/18 13:09:20;;;;;;;8.63;5.53;;;14.20;80.30;;;;;;5011499;28;20038;-71
2023/10/18 13:14:52;;;;;;;8.13;6.10;;;14.20;80.60;;;;;;5011590;28;20030;-71
2023/10/18 13:17:11;;;;;;;8.93;5.70;;;14.20;80.70;;;;;;5009246;28;20075;-71
2023/10/18 13:19:44;;;;;;;11.18;7.15;;;14.30;81.00;;;;;;5010985;28;20034;-71
2023/10/18 13:22:19;;;;;;;10.00;6.22;;;14.30;80.90;;;;;;5011036;28;20022;-71
2023/10/18 13:24:45;;;;;;;7.68;5.75;;;14.30;80.80;;;;;;5011224;28;20427;-71
2023/10/18 13:27:17;;;;;;;10.10;6.05;;;14.30;80.70;;;;;;5010787;28;20462;-71
2023/10/18 13:30:12;;;;;;;11.23;6.57;;;14.30;80.60;;;;;;5009542;28;20038;-71
2023/10/18 13:32:29;;;;;;;9.90;6.03;;;14.30;80.70;;;;;;5008452;28;20117;-71
2023/10/18 13:34:55;;;;;;;9.48;6.70;;;14.30;81.00;;;;;;5009450;28;20103;-72
2023/10/18 13:37:23;;;;;;;9.88;6.22;;;14.30;81.10;;;;;;5008994;28;20520;-71